Řízení letového provozu České republiky
Letiste: LKNA Aktualizace: 27.05.2018 00:01:07  UTC
 METAR LKNA 27.05. 00:00 ...
METAR LKNA 270000Z 36005KT CAVOK 15/12 Q1022 RMK BLU=
 TAF LKNA 26.05. 23:00 ...
TAF LKNA 262300Z 2700/2800 VRB02KT CAVOK      BECMG 2706/2708 15007KT      PROB30 TEMPO 2707/2717 SCT045TCU=